sensor_id;sensor_type;location;lat;lon;timestamp;temperature;humidity
1958;DHT22;979;51.076;13.748;2022-11-15T00:35:40;9.90;76.80
1958;DHT22;979;51.076;13.748;2022-11-15T00:41:20;9.90;77.10
1958;DHT22;979;51.076;13.748;2022-11-15T00:56:15;9.70;77.10
1958;DHT22;979;51.076;13.748;2022-11-15T02:09:51;9.90;78.00
1958;DHT22;979;51.076;13.748;2022-11-15T02:22:10;10.00;77.00
1958;DHT22;979;51.076;13.748;2022-11-15T02:42:02;9.70;78.00
1958;DHT22;979;51.076;13.748;2022-11-15T02:46:21;9.90;78.20
1958;DHT22;979;51.076;13.748;2022-11-15T02:50:34;9.90;78.30
1958;DHT22;979;51.076;13.748;2022-11-15T02:53:45;9.90;78.40
1958;DHT22;979;51.076;13.748;2022-11-15T03:17:37;9.90;78.20
1958;DHT22;979;51.076;13.748;2022-11-15T03:25:27;9.80;78.10
1958;DHT22;979;51.076;13.748;2022-11-15T03:29:32;9.80;78.30
1958;DHT22;979;51.076;13.748;2022-11-15T03:49:25;9.70;78.10
1958;DHT22;979;51.076;13.748;2022-11-15T03:52:57;9.60;78.20
1958;DHT22;979;51.076;13.748;2022-11-15T04:17:23;9.60;78.20
1958;DHT22;979;51.076;13.748;2022-11-15T04:21:11;9.80;78.30
1958;DHT22;979;51.076;13.748;2022-11-15T04:42:04;9.70;78.30
1958;DHT22;979;51.076;13.748;2022-11-15T04:44:55;9.60;78.60
1958;DHT22;979;51.076;13.748;2022-11-15T04:51:10;9.60;78.60
1958;DHT22;979;51.076;13.748;2022-11-15T04:53:22;9.70;78.40
1958;DHT22;979;51.076;13.748;2022-11-15T05:06:01;9.60;78.30
1958;DHT22;979;51.076;13.748;2022-11-15T05:09:38;9.70;78.50
1958;DHT22;979;51.076;13.748;2022-11-15T05:16:14;9.60;78.30
1958;DHT22;979;51.076;13.748;2022-11-15T05:19:38;9.40;78.30
1958;DHT22;979;51.076;13.748;2022-11-15T05:23:22;9.60;78.60
1958;DHT22;979;51.076;13.748;2022-11-15T05:26:32;9.80;78.70
1958;DHT22;979;51.076;13.748;2022-11-15T05:45:22;9.50;78.30
1958;DHT22;979;51.076;13.748;2022-11-15T05:48:36;9.50;78.30
1958;DHT22;979;51.076;13.748;2022-11-15T05:54:30;9.50;78.20
1958;DHT22;979;51.076;13.748;2022-11-15T05:57:28;9.50;78.40
1958;DHT22;979;51.076;13.748;2022-11-15T06:17:11;9.20;78.10
1958;DHT22;979;51.076;13.748;2022-11-15T06:20:40;9.30;78.40
1958;DHT22;979;51.076;13.748;2022-11-15T07:33:35;9.80;79.10
1958;DHT22;979;51.076;13.748;2022-11-15T07:36:38;10.10;78.60
1958;DHT22;979;51.076;13.748;2022-11-15T07:40:01;10.00;78.30
1958;DHT22;979;51.076;13.748;2022-11-15T07:52:10;10.30;78.20
1958;DHT22;979;51.076;13.748;2022-11-15T07:55:27;10.30;78.30
1958;DHT22;979;51.076;13.748;2022-11-15T07:58:42;10.70;78.90
1958;DHT22;979;51.076;13.748;2022-11-15T08:01:29;10.50;78.40
1958;DHT22;979;51.076;13.748;2022-11-15T08:04:37;10.60;78.50
1958;DHT22;979;51.076;13.748;2022-11-15T08:33:32;11.40;77.80
1958;DHT22;979;51.076;13.748;2022-11-15T08:36:25;11.50;77.80
1958;DHT22;979;51.076;13.748;2022-11-15T08:39:43;11.50;77.70
1958;DHT22;979;51.076;13.748;2022-11-15T08:42:57;11.50;77.80
1958;DHT22;979;51.076;13.748;2022-11-15T08:46:19;11.60;77.30
1958;DHT22;979;51.076;13.748;2022-11-15T09:00:57;11.90;76.70
1958;DHT22;979;51.076;13.748;2022-11-15T09:04:04;12.00;76.90
1958;DHT22;979;51.076;13.748;2022-11-15T09:07:13;12.00;77.10
1958;DHT22;979;51.076;13.748;2022-11-15T09:10:04;12.10;76.60
1958;DHT22;979;51.076;13.748;2022-11-15T09:12:57;12.10;76.60
1958;DHT22;979;51.076;13.748;2022-11-15T09:15:44;12.10;76.50
1958;DHT22;979;51.076;13.748;2022-11-15T09:18:32;12.20;76.40
1958;DHT22;979;51.076;13.748;2022-11-15T09:21:20;12.20;76.40
1958;DHT22;979;51.076;13.748;2022-11-15T09:24:07;12.30;76.30
1958;DHT22;979;51.076;13.748;2022-11-15T09:26:54;12.40;76.20
1958;DHT22;979;51.076;13.748;2022-11-15T09:29:42;12.50;76.10
1958;DHT22;979;51.076;13.748;2022-11-15T09:32:29;12.50;76.10
1958;DHT22;979;51.076;13.748;2022-11-15T09:35:24;12.60;75.90
1958;DHT22;979;51.076;13.748;2022-11-15T09:38:11;12.70;75.90
1958;DHT22;979;51.076;13.748;2022-11-15T09:44:23;12.70;75.10
1958;DHT22;979;51.076;13.748;2022-11-15T09:47:37;12.80;75.20
1958;DHT22;979;51.076;13.748;2022-11-15T09:50:41;12.80;75.00
1958;DHT22;979;51.076;13.748;2022-11-15T09:53:18;12.90;75.10
1958;DHT22;979;51.076;13.748;2022-11-15T09:56:15;13.00;75.10
1958;DHT22;979;51.076;13.748;2022-11-15T09:58:52;13.00;75.00
1958;DHT22;979;51.076;13.748;2022-11-15T10:01:36;13.20;75.10
1958;DHT22;979;51.076;13.748;2022-11-15T10:04:08;13.20;74.90
1958;DHT22;979;51.076;13.748;2022-11-15T10:06:44;13.30;75.20
1958;DHT22;979;51.076;13.748;2022-11-15T10:09:17;13.40;74.60
1958;DHT22;979;51.076;13.748;2022-11-15T10:11:50;13.40;74.20
1958;DHT22;979;51.076;13.748;2022-11-15T10:14:20;13.40;74.20
1958;DHT22;979;51.076;13.748;2022-11-15T10:17:14;13.50;74.10
1958;DHT22;979;51.076;13.748;2022-11-15T10:19:54;13.50;74.00
1958;DHT22;979;51.076;13.748;2022-11-15T10:22:38;13.60;73.80
1958;DHT22;979;51.076;13.748;2022-11-15T10:25:16;13.60;73.60
1958;DHT22;979;51.076;13.748;2022-11-15T10:27:56;13.60;73.40
1958;DHT22;979;51.076;13.748;2022-11-15T10:30:32;13.60;73.20
1958;DHT22;979;51.076;13.748;2022-11-15T10:33:22;13.70;73.50
1958;DHT22;979;51.076;13.748;2022-11-15T10:36:15;13.70;73.30
1958;DHT22;979;51.076;13.748;2022-11-15T10:38:57;13.90;73.30
1958;DHT22;979;51.076;13.748;2022-11-15T10:41:32;13.90;73.20
1958;DHT22;979;51.076;13.748;2022-11-15T10:44:27;14.00;73.10
1958;DHT22;979;51.076;13.748;2022-11-15T10:47:24;14.00;72.80
1958;DHT22;979;51.076;13.748;2022-11-15T10:50:26;14.10;72.80
1958;DHT22;979;51.076;13.748;2022-11-15T10:53:10;13.90;72.30
1958;DHT22;979;51.076;13.748;2022-11-15T10:56:03;14.10;72.60
1958;DHT22;979;51.076;13.748;2022-11-15T10:58:38;14.20;72.60
1958;DHT22;979;51.076;13.748;2022-11-15T11:01:29;14.30;72.60
1958;DHT22;979;51.076;13.748;2022-11-15T11:04:01;14.30;72.60
1958;DHT22;979;51.076;13.748;2022-11-15T11:06:46;14.40;72.50
1958;DHT22;979;51.076;13.748;2022-11-15T11:09:27;14.40;72.20
1958;DHT22;979;51.076;13.748;2022-11-15T11:12:00;14.50;72.10
1958;DHT22;979;51.076;13.748;2022-11-15T11:14:40;14.50;72.00
1958;DHT22;979;51.076;13.748;2022-11-15T11:17:23;14.50;71.90
1958;DHT22;979;51.076;13.748;2022-11-15T11:20:11;14.50;71.60
1958;DHT22;979;51.076;13.748;2022-11-15T11:23:19;14.50;71.50
1958;DHT22;979;51.076;13.748;2022-11-15T11:26:07;14.60;71.30
1958;DHT22;979;51.076;13.748;2022-11-15T11:28:53;14.50;71.10
1958;DHT22;979;51.076;13.748;2022-11-15T11:31:37;14.60;71.20
1958;DHT22;979;51.076;13.748;2022-11-15T11:34:33;14.30;70.80
1958;DHT22;979;51.076;13.748;2022-11-15T11:37:19;14.70;71.40
1958;DHT22;979;51.076;13.748;2022-11-15T11:39:57;15.20;72.60
1958;DHT22;979;51.076;13.748;2022-11-15T11:42:40;16.30;72.50
1958;DHT22;979;51.076;13.748;2022-11-15T11:45:32;17.50;71.70
1958;DHT22;979;51.076;13.748;2022-11-15T11:48:19;18.70;69.90
1958;DHT22;979;51.076;13.748;2022-11-15T11:51:22;20.10;70.00
1958;DHT22;979;51.076;13.748;2022-11-15T11:53:56;21.40;66.90
1958;DHT22;979;51.076;13.748;2022-11-15T11:56:28;22.30;64.90
1958;DHT22;979;51.076;13.748;2022-11-15T11:59:03;23.00;62.50
1958;DHT22;979;51.076;13.748;2022-11-15T12:01:39;23.60;61.90
1958;DHT22;979;51.076;13.748;2022-11-15T12:04:14;24.40;60.30
1958;DHT22;979;51.076;13.748;2022-11-15T12:07:00;25.00;59.00
1958;DHT22;979;51.076;13.748;2022-11-15T12:09:48;25.80;58.60
1958;DHT22;979;51.076;13.748;2022-11-15T12:12:30;26.40;56.60
1958;DHT22;979;51.076;13.748;2022-11-15T12:15:19;26.70;55.80
1958;DHT22;979;51.076;13.748;2022-11-15T12:18:08;27.20;55.30
1958;DHT22;979;51.076;13.748;2022-11-15T12:20:57;27.50;53.90
1958;DHT22;979;51.076;13.748;2022-11-15T12:23:32;27.90;53.20
1958;DHT22;979;51.076;13.748;2022-11-15T12:26:06;28.00;52.80
1958;DHT22;979;51.076;13.748;2022-11-15T12:28:39;28.70;52.70
1958;DHT22;979;51.076;13.748;2022-11-15T12:31:39;29.10;51.80
1958;DHT22;979;51.076;13.748;2022-11-15T12:34:30;29.20;51.10
1958;DHT22;979;51.076;13.748;2022-11-15T12:37:32;29.30;50.00
1958;DHT22;979;51.076;13.748;2022-11-15T12:40:20;29.80;49.80
1958;DHT22;979;51.076;13.748;2022-11-15T12:46:02;30.30;48.50
1958;DHT22;979;51.076;13.748;2022-11-15T12:48:51;30.50;48.80
1958;DHT22;979;51.076;13.748;2022-11-15T12:57:36;30.50;47.20
1958;DHT22;979;51.076;13.748;2022-11-15T13:00:36;30.50;47.00
1958;DHT22;979;51.076;13.748;2022-11-15T13:03:26;30.40;46.50
1958;DHT22;979;51.076;13.748;2022-11-15T13:06:04;30.30;46.20
1958;DHT22;979;51.076;13.748;2022-11-15T13:08:49;29.90;46.00
1958;DHT22;979;51.076;13.748;2022-11-15T13:11:43;29.50;45.80
1958;DHT22;979;51.076;13.748;2022-11-15T13:14:44;29.10;46.00
1958;DHT22;979;51.076;13.748;2022-11-15T13:17:36;28.90;45.90
1958;DHT22;979;51.076;13.748;2022-11-15T13:20:24;28.70;46.20
1958;DHT22;979;51.076;13.748;2022-11-15T13:23:01;28.40;46.10
1958;DHT22;979;51.076;13.748;2022-11-15T13:26:04;27.50;45.80
1958;DHT22;979;51.076;13.748;2022-11-15T13:28:37;25.90;46.20
1958;DHT22;979;51.076;13.748;2022-11-15T13:31:26;24.50;47.10
1958;DHT22;979;51.076;13.748;2022-11-15T13:33:57;23.00;47.80
1958;DHT22;979;51.076;13.748;2022-11-15T13:36:31;21.80;48.60
1958;DHT22;979;51.076;13.748;2022-11-15T13:39:02;20.90;49.60
1958;DHT22;979;51.076;13.748;2022-11-15T14:46:01;13.50;58.80
1958;DHT22;979;51.076;13.748;2022-11-15T14:48:30;13.30;58.90
1958;DHT22;979;51.076;13.748;2022-11-15T14:51:00;13.20;59.20
1958;DHT22;979;51.076;13.748;2022-11-15T14:53:41;13.20;59.60
1958;DHT22;979;51.076;13.748;2022-11-15T14:56:10;13.10;59.80
1958;DHT22;979;51.076;13.748;2022-11-15T14:58:38;13.00;59.90
1958;DHT22;979;51.076;13.748;2022-11-15T15:01:13;12.90;60.10
1958;DHT22;979;51.076;13.748;2022-11-15T15:03:41;12.80;60.30
1958;DHT22;979;51.076;13.748;2022-11-15T15:06:11;12.60;60.20
1958;DHT22;979;51.076;13.748;2022-11-15T15:08:46;12.60;60.60
1958;DHT22;979;51.076;13.748;2022-11-15T15:11:21;12.50;60.50
1958;DHT22;979;51.076;13.748;2022-11-15T15:13:51;12.40;60.60
1958;DHT22;979;51.076;13.748;2022-11-15T15:16:21;12.40;60.90
1958;DHT22;979;51.076;13.748;2022-11-15T15:18:49;12.30;61.30
1958;DHT22;979;51.076;13.748;2022-11-15T15:21:20;12.20;61.30
1958;DHT22;979;51.076;13.748;2022-11-15T15:23:49;12.10;61.30
1958;DHT22;979;51.076;13.748;2022-11-15T15:26:18;12.00;61.40
1958;DHT22;979;51.076;13.748;2022-11-15T15:28:46;11.80;61.50
1958;DHT22;979;51.076;13.748;2022-11-15T15:31:21;11.80;61.80
1958;DHT22;979;51.076;13.748;2022-11-15T15:33:49;11.70;61.90
1958;DHT22;979;51.076;13.748;2022-11-15T15:36:18;11.50;62.10
1958;DHT22;979;51.076;13.748;2022-11-15T15:38:47;11.40;62.20
1958;DHT22;979;51.076;13.748;2022-11-15T15:41:16;11.40;62.50
1958;DHT22;979;51.076;13.748;2022-11-15T15:43:45;11.30;62.60
1958;DHT22;979;51.076;13.748;2022-11-15T15:46:16;11.20;62.80
1958;DHT22;979;51.076;13.748;2022-11-15T15:48:47;11.10;62.80
1958;DHT22;979;51.076;13.748;2022-11-15T15:51:15;11.00;62.80
1958;DHT22;979;51.076;13.748;2022-11-15T15:53:47;11.00;63.20
1958;DHT22;979;51.076;13.748;2022-11-15T15:56:15;10.90;63.10
1958;DHT22;979;51.076;13.748;2022-11-15T15:58:43;10.90;63.50
1958;DHT22;979;51.076;13.748;2022-11-15T16:01:12;10.80;63.50
1958;DHT22;979;51.076;13.748;2022-11-15T16:03:40;10.80;63.60
1958;DHT22;979;51.076;13.748;2022-11-15T16:06:35;10.70;63.70
1958;DHT22;979;51.076;13.748;2022-11-15T16:12:28;10.60;63.90
1958;DHT22;979;51.076;13.748;2022-11-15T16:14:58;10.50;63.90
1958;DHT22;979;51.076;13.748;2022-11-15T16:17:30;10.50;64.20
1958;DHT22;979;51.076;13.748;2022-11-15T16:20:00;10.40;64.20
1958;DHT22;979;51.076;13.748;2022-11-15T16:22:34;10.60;64.60
1958;DHT22;979;51.076;13.748;2022-11-15T16:25:02;10.30;64.50
1958;DHT22;979;51.076;13.748;2022-11-15T16:27:39;10.20;64.60
1958;DHT22;979;51.076;13.748;2022-11-15T16:30:16;10.20;65.00
1958;DHT22;979;51.076;13.748;2022-11-15T16:33:03;10.20;65.10
1958;DHT22;979;51.076;13.748;2022-11-15T16:35:35;10.20;65.00
1958;DHT22;979;51.076;13.748;2022-11-15T16:38:21;9.90;66.20
1958;DHT22;979;51.076;13.748;2022-11-15T16:41:06;10.10;65.50
1958;DHT22;979;51.076;13.748;2022-11-15T16:43:36;10.00;65.30
1958;DHT22;979;51.076;13.748;2022-11-15T16:46:12;9.90;66.40
1958;DHT22;979;51.076;13.748;2022-11-15T16:48:41;9.90;66.40
1958;DHT22;979;51.076;13.748;2022-11-15T16:51:12;9.80;66.50
1958;DHT22;979;51.076;13.748;2022-11-15T16:53:45;10.00;65.70
1958;DHT22;979;51.076;13.748;2022-11-15T16:56:22;9.80;66.60
1958;DHT22;979;51.076;13.748;2022-11-15T16:58:51;9.70;66.20
1958;DHT22;979;51.076;13.748;2022-11-15T17:01:23;9.70;66.50
1958;DHT22;979;51.076;13.748;2022-11-15T17:03:55;9.70;66.10
1958;DHT22;979;51.076;13.748;2022-11-15T17:11:18;9.60;65.90
1958;DHT22;979;51.076;13.748;2022-11-15T17:14:05;9.50;66.00
1958;DHT22;979;51.076;13.748;2022-11-15T17:16:44;9.50;66.20
1958;DHT22;979;51.076;13.748;2022-11-15T17:19:16;9.50;66.30
1958;DHT22;979;51.076;13.748;2022-11-15T17:21:49;9.40;66.20
1958;DHT22;979;51.076;13.748;2022-11-15T17:24:28;9.40;66.30
1958;DHT22;979;51.076;13.748;2022-11-15T17:27:22;9.40;66.20
1958;DHT22;979;51.076;13.748;2022-11-15T17:53:30;9.20;66.00
1958;DHT22;979;51.076;13.748;2022-11-15T17:59:51;9.00;66.30
1958;DHT22;979;51.076;13.748;2022-11-15T18:03:43;9.10;66.50
1958;DHT22;979;51.076;13.748;2022-11-15T18:06:31;8.80;66.00
1958;DHT22;979;51.076;13.748;2022-11-15T18:09:57;8.90;66.70
1958;DHT22;979;51.076;13.748;2022-11-15T18:12:28;8.90;66.70
1958;DHT22;979;51.076;13.748;2022-11-15T18:14:56;8.90;66.90
1958;DHT22;979;51.076;13.748;2022-11-15T18:17:50;8.80;67.00
1958;DHT22;979;51.076;13.748;2022-11-15T18:20:49;8.80;66.80
1958;DHT22;979;51.076;13.748;2022-11-15T18:26:19;8.80;67.10
1958;DHT22;979;51.076;13.748;2022-11-15T18:28:56;8.70;67.20
1958;DHT22;979;51.076;13.748;2022-11-15T20:33:27;7.90;69.40
1958;DHT22;979;51.076;13.748;2022-11-15T20:36:05;7.90;69.70
1958;DHT22;979;51.076;13.748;2022-11-15T20:38:38;7.90;69.80
1958;DHT22;979;51.076;13.748;2022-11-15T20:41:06;7.90;70.10
1958;DHT22;979;51.076;13.748;2022-11-15T21:13:10;7.90;70.90
1958;DHT22;979;51.076;13.748;2022-11-15T22:15:54;8.10;72.30
1958;DHT22;979;51.076;13.748;2022-11-15T22:18:25;8.20;73.40
1958;DHT22;979;51.076;13.748;2022-11-15T22:20:54;8.10;72.80
1958;DHT22;979;51.076;13.748;2022-11-15T22:23:28;8.10;72.70
1958;DHT22;979;51.076;13.748;2022-11-15T22:25:57;8.10;72.90
1958;DHT22;979;51.076;13.748;2022-11-15T22:28:25;8.10;73.20
1958;DHT22;979;51.076;13.748;2022-11-15T22:30:58;8.10;73.30
1958;DHT22;979;51.076;13.748;2022-11-15T22:33:29;8.10;73.40
1958;DHT22;979;51.076;13.748;2022-11-15T22:35:59;8.10;73.60
1958;DHT22;979;51.076;13.748;2022-11-15T22:38:27;8.10;73.60
1958;DHT22;979;51.076;13.748;2022-11-15T22:40:56;8.10;73.70
1958;DHT22;979;51.076;13.748;2022-11-15T22:43:28;8.20;73.70
1958;DHT22;979;51.076;13.748;2022-11-15T22:45:59;8.20;73.70
1958;DHT22;979;51.076;13.748;2022-11-15T22:48:29;8.20;73.70
1958;DHT22;979;51.076;13.748;2022-11-15T22:50:58;8.20;73.70
1958;DHT22;979;51.076;13.748;2022-11-15T22:53:27;8.20;73.80
1958;DHT22;979;51.076;13.748;2022-11-15T22:55:58;8.20;74.00
1958;DHT22;979;51.076;13.748;2022-11-15T22:58:30;8.20;74.00
1958;DHT22;979;51.076;13.748;2022-11-15T23:01:04;8.20;74.20
1958;DHT22;979;51.076;13.748;2022-11-15T23:03:35;8.20;74.10
1958;DHT22;979;51.076;13.748;2022-11-15T23:06:05;8.20;74.10
1958;DHT22;979;51.076;13.748;2022-11-15T23:08:37;8.20;74.10
1958;DHT22;979;51.076;13.748;2022-11-15T23:11:08;8.20;74.20
1958;DHT22;979;51.076;13.748;2022-11-15T23:13:51;8.20;74.20
1958;DHT22;979;51.076;13.748;2022-11-15T23:16:21;8.20;74.20
1958;DHT22;979;51.076;13.748;2022-11-15T23:18:59;8.20;74.40
1958;DHT22;979;51.076;13.748;2022-11-15T23:21:30;8.20;74.40
1958;DHT22;979;51.076;13.748;2022-11-15T23:24:16;8.20;74.40
1958;DHT22;979;51.076;13.748;2022-11-15T23:26:46;8.20;74.60
1958;DHT22;979;51.076;13.748;2022-11-15T23:29:17;8.20;74.60
1958;DHT22;979;51.076;13.748;2022-11-15T23:31:47;8.20;74.60
1958;DHT22;979;51.076;13.748;2022-11-15T23:34:48;8.20;74.60
1958;DHT22;979;51.076;13.748;2022-11-15T23:37:22;8.20;74.70
1958;DHT22;979;51.076;13.748;2022-11-15T23:39:58;8.20;74.90
1958;DHT22;979;51.076;13.748;2022-11-15T23:42:26;8.20;74.80
1958;DHT22;979;51.076;13.748;2022-11-15T23:44:55;8.30;74.90
1958;DHT22;979;51.076;13.748;2022-11-15T23:47:27;8.20;74.70
1958;DHT22;979;51.076;13.748;2022-11-15T23:49:56;8.30;74.90
1958;DHT22;979;51.076;13.748;2022-11-15T23:52:24;8.20;74.80
1958;DHT22;979;51.076;13.748;2022-11-15T23:54:53;8.30;75.00
1958;DHT22;979;51.076;13.748;2022-11-15T23:57:21;8.30;75.20
1958;DHT22;979;51.076;13.748;2022-11-15T23:59:50;8.20;74.90
